Time;durP1;ratioP1;P1;durP2;ratioP2;P2;SDS_P1;SDS_P2;PMS_P1;PMS_P2;Temp;Humidity;BMP_temperature;BMP_pressure;BME280_temperature;BME280_humidity;BME280_pressure;Samples;Min_cycle;Max_cycle;Signal;HPM_P1;HPM_P2
2022/10/19 00:00:10;;;;;;;10.68;5.20;;;;;;;10.42;81.56;101567.88;5071264;28;20417;-60
2022/10/19 00:02:37;;;;;;;35.50;5.78;;;;;;;10.47;81.18;101559.50;5071785;28;20231;-59
2022/10/19 00:05:05;;;;;;;27.58;6.13;;;;;;;10.47;80.99;101559.50;5070850;28;20053;-60
2022/10/19 00:07:33;;;;;;;35.00;6.32;;;;;;;10.50;80.69;101558.09;5072167;28;20048;-58
2022/10/19 00:10:01;;;;;;;22.75;5.45;;;;;;;10.56;81.33;101554.16;5070657;28;20056;-60
2022/10/19 00:12:29;;;;;;;24.58;5.80;;;;;;;10.56;80.82;101560.56;5071989;28;20060;-60
2022/10/19 00:14:57;;;;;;;23.63;5.90;;;;;;;10.62;81.18;101563.31;5051555;28;20063;-60
2022/10/19 00:17:24;;;;;;;12.23;5.00;;;;;;;10.62;80.96;101552.16;5052190;28;20406;-60
2022/10/19 00:19:51;;;;;;;9.50;4.72;;;;;;;10.63;80.82;101554.69;5067876;28;20053;-60
2022/10/19 00:22:19;;;;;;;13.57;4.47;;;;;;;10.65;80.74;101548.81;5072158;28;20064;-60
2022/10/19 00:24:46;;;;;;;61.75;8.35;;;;;;;10.64;80.13;101550.75;5071924;28;20056;-60
2022/10/19 00:27:13;;;;;;;13.05;4.95;;;;;;;10.65;80.49;101541.28;5072083;28;20057;-60
2022/10/19 00:29:42;;;;;;;19.75;4.93;;;;;;;10.64;79.91;101549.94;5070626;28;20056;-60
2022/10/19 00:32:09;;;;;;;33.33;6.53;;;;;;;10.63;80.07;101543.53;5070994;28;20063;-61
2022/10/19 00:34:36;;;;;;;25.85;5.25;;;;;;;10.61;80.02;101536.59;5052067;28;20509;-60
2022/10/19 00:37:04;;;;;;;53.05;7.80;;;;;;;10.59;79.65;101542.44;5052002;28;20061;-60
2022/10/19 00:39:31;;;;;;;22.98;5.20;;;;;;;10.60;78.53;101538.53;5050453;28;20049;-60
2022/10/19 00:41:58;;;;;;;19.70;5.03;;;;;;;10.56;79.02;101538.28;5051749;28;20057;-60
2022/10/19 00:45:05;;;;;;;58.78;7.22;;;;;;;10.55;78.50;101539.38;5052115;28;20068;-60
2022/10/19 00:47:33;;;;;;;12.93;5.05;;;;;;;10.56;78.33;101538.28;5029647;28;20057;-60
2022/10/19 00:50:00;;;;;;;106.95;9.68;;;;;;;10.55;78.88;101544.97;5050503;28;20053;-61
2022/10/19 00:52:28;;;;;;;26.48;5.63;;;;;;;10.55;78.83;101539.38;5051626;28;20056;-60
2022/10/19 00:54:58;;;;;;;39.35;5.90;;;;;;;10.58;78.56;101540.75;5050842;28;20064;-60
2022/10/19 00:57:28;;;;;;;22.05;5.15;;;;;;;10.59;77.98;101539.66;5051837;28;20057;-61
2022/10/19 00:59:57;;;;;;;49.40;6.65;;;;;;;10.54;78.41;101537.75;5051775;28;20053;-60
2022/10/19 01:02:26;;;;;;;7.43;4.18;;;;;;;10.53;78.48;101544.41;5051815;28;20075;-60
2022/10/19 01:04:53;;;;;;;19.07;5.07;;;;;;;10.59;78.60;101541.63;5053751;28;20065;-60
2022/10/19 01:07:24;;;;;;;63.60;7.38;;;;;;;10.57;78.82;101544.69;5055713;28;20489;-60
2022/10/19 01:09:51;;;;;;;53.92;7.20;;;;;;;10.52;78.21;101534.41;5055586;28;20060;-60
2022/10/19 01:12:39;;;;;;;40.78;5.40;;;;;;;10.55;78.39;101541.34;5055234;28;20056;-60
2022/10/19 01:15:19;;;;;;;18.45;4.40;;;;;;;10.54;78.16;101540.53;5039211;28;20052;-60
2022/10/19 01:18:02;;;;;;;149.95;10.93;;;;;;;10.52;77.83;101542.75;5055572;28;20076;-60
2022/10/19 01:21:14;;;;;;;65.00;7.32;;;;;;;10.52;78.19;101539.97;5055560;28;20428;-60
2022/10/19 01:24:23;;;;;;;32.13;4.93;;;;;;;10.52;78.50;101541.91;4974186;28;20059;-60
2022/10/19 01:27:24;;;;;;;25.35;4.53;;;;;;;10.55;77.98;101544.13;4972448;28;20058;-59
2022/10/19 01:30:19;;;;;;;68.78;6.47;;;;;;;10.54;78.05;101543.31;5054677;28;20390;-60
2022/10/19 01:32:59;;;;;;;82.07;6.70;;;;;;;10.47;78.18;101539.16;5036827;28;20063;-60
2022/10/19 01:35:28;;;;;;;;;;;;;;;10.45;77.89;101535.84;5054305;28;20429;-60
2022/10/19 01:38:05;;;;;;;75.22;7.43;;;;;;;10.46;78.15;101540.31;5052389;28;20289;-60
2022/10/19 01:40:43;;;;;;;61.63;6.05;;;;;;;10.41;77.94;101530.00;5054810;28;20063;-60
2022/10/19 01:43:19;;;;;;;13.38;3.67;;;;;;;10.42;78.02;101522.50;5054902;28;20379;-60
2022/10/19 01:45:53;;;;;;;84.90;7.60;;;;;;;10.46;78.00;101521.63;5052342;28;20060;-60
2022/10/19 01:48:25;;;;;;;23.35;5.28;;;;;;;10.43;77.71;101522.19;5054906;28;20063;-60
2022/10/19 01:50:57;;;;;;;25.73;5.43;;;;;;;10.45;78.09;101513.56;5054563;28;20068;-61
2022/10/19 01:53:28;;;;;;;108.88;8.65;;;;;;;10.33;76.18;101513.88;5054683;28;20049;-60
2022/10/19 01:55:57;;;;;;;39.83;5.93;;;;;;;10.25;76.71;101509.75;5053352;28;20064;-60
2022/10/19 01:58:28;;;;;;;53.80;6.57;;;;;;;10.24;76.58;101501.66;5054567;28;20451;-60
2022/10/19 02:01:01;;;;;;;55.95;6.90;;;;;;;10.24;77.03;101510.03;5054335;28;20079;-60
2022/10/19 02:03:31;;;;;;;57.55;7.05;;;;;;;10.19;76.77;101505.31;5054410;28;20065;-60
2022/10/19 02:06:00;;;;;;;41.00;5.35;;;;;;;10.19;77.18;101496.97;5052551;28;20068;-60
2022/10/19 02:08:31;;;;;;;22.58;4.35;;;;;;;10.19;77.81;101498.94;5053602;28;20053;-59
2022/10/19 02:10:59;;;;;;;13.43;4.10;;;;;;;10.16;77.39;101501.16;5049972;28;20058;-60
2022/10/19 02:13:29;;;;;;;15.88;4.72;;;;;;;10.16;78.11;101503.94;5042178;28;20064;-60
2022/10/19 02:16:01;;;;;;;34.17;5.60;;;;;;;10.20;77.09;101493.03;5052949;28;20063;-60
2022/10/19 02:18:35;;;;;;;9.85;4.20;;;;;;;10.20;76.30;101495.00;5054168;28;20512;-60
2022/10/19 02:21:04;;;;;;;18.20;5.00;;;;;;;10.14;77.20;101491.41;5054030;28;20053;-60
2022/10/19 02:23:31;;;;;;;13.25;4.32;;;;;;;10.12;77.04;101500.06;5054308;28;20505;-60
2022/10/19 02:25:59;;;;;;;26.08;4.63;;;;;;;10.16;76.06;101500.31;5052215;28;20068;-60
2022/10/19 02:28:28;;;;;;;50.72;5.43;;;;;;;10.16;75.59;101500.31;5053784;28;20083;-60
2022/10/19 02:30:58;;;;;;;75.85;6.75;;;;;;;10.09;75.94;101505.38;5053950;28;20065;-59
2022/10/19 02:33:25;;;;;;;;;;;;;;;10.08;76.36;101507.31;5054371;28;20056;-60
2022/10/19 02:35:53;;;;;;;28.38;5.22;;;;;;;10.07;75.81;101515.97;5052835;28;20278;-60
2022/10/19 02:38:22;;;;;;;23.92;5.03;;;;;;;10.04;76.12;101514.59;5053868;28;20052;-60
2022/10/19 02:41:04;;;;;;;16.23;4.35;;;;;;;10.04;76.41;101513.75;5053378;28;20076;-59
2022/10/19 02:43:37;;;;;;;14.88;3.42;;;;;;;10.01;77.42;101506.78;5053628;28;20057;-60
2022/10/19 02:46:15;;;;;;;110.72;10.52;;;;;;;10.03;76.54;101506.50;5051678;28;20057;-60
2022/10/19 02:48:44;;;;;;;6.13;3.35;;;;;;;10.02;76.84;101511.25;5053568;28;20493;-60
2022/10/19 02:51:27;;;;;;;19.38;4.28;;;;;;;10.03;76.42;101507.34;5053603;28;20056;-60
2022/10/19 02:53:54;;;;;;;29.13;5.13;;;;;;;10.02;77.11;101504.84;5052810;28;20076;-53
2022/10/19 02:56:21;;;;;;;14.13;4.47;;;;;;;10.02;76.85;101502.06;5053702;28;20417;-50
2022/10/19 02:58:49;;;;;;;8.32;3.85;;;;;;;10.05;77.09;101498.69;5053409;28;20057;-51
2022/10/19 03:01:17;;;;;;;35.65;5.57;;;;;;;10.06;77.43;101498.44;5053353;28;20061;-54
2022/10/19 03:03:45;;;;;;;21.65;4.50;;;;;;;10.09;76.71;101500.63;5051776;28;20061;-51
2022/10/19 03:06:12;;;;;;;16.45;4.38;;;;;;;10.11;76.59;101492.00;5053521;28;20409;-49
2022/10/19 03:08:39;;;;;;;22.80;4.50;;;;;;;10.12;76.38;101494.50;5053331;28;20053;-49
2022/10/19 03:11:07;;;;;;;15.90;4.30;;;;;;;10.11;76.77;101498.38;5053207;28;20132;-52
2022/10/19 03:13:34;;;;;;;13.95;3.60;;;;;;;10.14;75.79;101492.25;5051858;28;20049;-49
2022/10/19 03:16:07;;;;;;;22.88;3.97;;;;;;;10.12;75.92;101497.28;5053120;28;20056;-51
2022/10/19 03:18:40;;;;;;;13.18;3.50;;;;;;;10.08;75.09;101498.97;5053262;28;20413;-51
2022/10/19 03:21:11;;;;;;;25.08;4.60;;;;;;;9.97;75.07;101497.34;5053126;28;20061;-51
2022/10/19 03:23:39;;;;;;;38.10;5.00;;;;;;;9.98;75.58;101493.44;5051968;28;20049;-52
2022/10/19 03:26:08;;;;;;;55.28;6.95;;;;;;;9.88;75.30;101499.06;5052469;28;20056;-51
2022/10/19 03:28:36;;;;;;;26.47;5.07;;;;;;;9.78;75.10;101496.31;5052989;28;20064;-51
2022/10/19 03:31:03;;;;;;;42.17;5.70;;;;;;;9.68;74.89;101498.03;5052636;28;20060;-53
2022/10/19 03:33:30;;;;;;;23.98;4.88;;;;;;;9.68;76.17;101498.03;5051482;28;20417;-50
2022/10/19 03:36:19;;;;;;;33.85;4.72;;;;;;;9.62;74.62;101496.38;5052840;28;20413;-50
2022/10/19 03:38:46;;;;;;;5.03;3.10;;;;;;;9.62;74.95;101501.94;5053009;28;20061;-55
2022/10/19 03:41:14;;;;;;;5.80;3.25;;;;;;;9.63;74.86;101498.03;5052480;28;20485;-51
2022/10/19 03:43:41;;;;;;;6.13;3.28;;;;;;;9.68;74.67;101491.59;5049762;28;20056;-52
2022/10/19 03:46:09;;;;;;;4.45;3.20;;;;;;;9.71;73.95;101497.44;5052889;28;20064;-53
2022/10/19 03:48:36;;;;;;;6.45;3.60;;;;;;;9.70;74.88;101501.34;5052810;28;20063;-52
2022/10/19 03:51:05;;;;;;;5.75;3.60;;;;;;;9.71;73.92;101505.78;5052742;28;20057;-54
2022/10/19 03:53:35;;;;;;;6.30;3.78;;;;;;;9.72;72.77;101507.47;5050944;28;20060;-51
2022/10/19 03:56:04;;;;;;;4.85;2.90;;;;;;;9.70;72.74;101511.63;5052390;28;20061;-51
2022/10/19 03:58:33;;;;;;;4.18;3.00;;;;;;;9.68;72.57;101508.28;5051159;28;20061;-54
2022/10/19 04:01:00;;;;;;;6.05;3.20;;;;;;;9.61;72.24;101505.00;5052289;28;20056;-54
2022/10/19 04:03:27;;;;;;;3.72;2.67;;;;;;;9.60;72.25;101504.16;5050819;28;20076;-50
2022/10/19 04:06:02;;;;;;;3.47;2.90;;;;;;;9.58;72.13;101498.06;5052482;28;20064;-53
2022/10/19 04:08:29;;;;;;;5.53;2.95;;;;;;;9.54;73.28;101502.50;5052250;28;20060;-54
2022/10/19 04:11:01;;;;;;;4.40;2.80;;;;;;;9.49;72.49;101502.50;5052279;28;20057;-53
2022/10/19 04:13:32;;;;;;;4.03;2.95;;;;;;;9.40;71.59;101512.56;5045954;28;20479;-54
2022/10/19 04:16:00;;;;;;;5.15;3.10;;;;;;;9.29;71.73;101503.41;5046925;28;20057;-50
2022/10/19 04:18:27;;;;;;;6.22;3.58;;;;;;;9.18;72.30;101502.59;5049842;28;20056;-53
2022/10/19 04:20:58;;;;;;;4.70;3.10;;;;;;;9.09;71.54;101509.81;5051945;28;20052;-51
2022/10/19 04:23:27;;;;;;;4.15;3.10;;;;;;;9.00;72.33;101506.75;5052051;28;20060;-50
2022/10/19 04:26:00;;;;;;;;;;;;;;;8.84;70.99;101508.72;5051531;28;20061;-51
2022/10/19 04:28:28;;;;;;;4.05;2.97;;;;;;;8.71;71.06;101503.69;5050011;28;19921;-51
2022/10/19 04:30:55;;;;;;;9.52;4.10;;;;;;;8.62;72.19;101505.34;5048243;28;20646;-50
2022/10/19 04:33:23;;;;;;;6.60;4.40;;;;;;;8.57;73.30;101508.97;5041135;28;20473;-54
2022/10/19 04:35:50;;;;;;;9.02;4.85;;;;;;;8.56;74.56;101521.16;5054994;28;20056;-53
2022/10/19 04:38:17;;;;;;;4.95;4.07;;;;;;;8.54;73.26;101515.88;5073288;28;20052;-53
2022/10/19 04:40:44;;;;;;;5.97;4.07;;;;;;;8.58;73.75;101507.00;5072734;28;20503;-51
2022/10/19 04:43:13;;;;;;;6.82;4.05;;;;;;;8.66;74.12;101500.91;5076286;28;20533;-52
2022/10/19 04:45:40;;;;;;;6.93;4.32;;;;;;;8.66;72.92;101498.97;5076240;28;20056;-52
2022/10/19 04:48:07;;;;;;;14.77;5.18;;;;;;;8.65;74.36;101502.00;5085994;28;20071;-53
2022/10/19 04:50:35;;;;;;;41.05;6.07;;;;;;;8.62;73.74;101497.03;5085499;28;20055;-52
2022/10/19 04:53:02;;;;;;;36.47;5.80;;;;;;;8.66;75.21;101493.41;5093357;28;20067;-54
2022/10/19 04:55:29;;;;;;;140.38;10.20;;;;;;;8.68;75.63;101495.91;5076335;28;20489;-52
2022/10/19 04:57:57;;;;;;;36.83;6.22;;;;;;;8.69;75.65;101494.78;5090100;28;20072;-52
2022/10/19 05:00:25;;;;;;;86.47;7.35;;;;;;;8.73;75.70;101501.47;5079553;28;20044;-50
2022/10/19 05:02:52;;;;;;;59.70;6.72;;;;;;;8.75;75.06;101490.91;5085554;28;20959;-54
2022/10/19 05:05:20;;;;;;;27.40;6.32;;;;;;;8.80;74.97;101495.63;5093744;28;20048;-50
2022/10/19 05:07:48;;;;;;;28.80;6.03;;;;;;;8.79;73.95;101497.59;5073925;28;20053;-50
2022/10/19 05:10:16;;;;;;;50.45;7.32;;;;;;;8.70;74.34;101496.47;5074364;28;20055;-51
2022/10/19 05:12:43;;;;;;;40.45;6.75;;;;;;;8.70;75.94;101494.53;5088501;28;20056;-54
2022/10/19 05:15:11;;;;;;;31.20;8.18;;;;;;;8.67;75.80;101491.47;5070334;28;20503;-54
2022/10/19 05:17:39;;;;;;;58.85;9.73;;;;;;;8.68;75.28;101487.59;5091629;28;20055;-50
2022/10/19 05:20:10;;;;;;;35.33;8.70;;;;;;;8.71;74.28;101487.03;5086211;28;20052;-50
2022/10/19 05:22:37;;;;;;;52.78;11.63;;;;;;;8.68;74.23;101479.25;5086923;28;20048;-53
2022/10/19 05:25:05;;;;;;;134.50;14.93;;;;;;;8.62;75.05;101474.81;5082599;28;20096;-52
2022/10/19 05:27:32;;;;;;;142.05;14.70;;;;;;;8.56;74.78;101478.69;5085447;28;20056;-52
2022/10/19 05:30:00;;;;;;;25.23;6.72;;;;;;;8.47;75.70;101465.34;5072557;28;20067;-53
2022/10/19 05:32:27;;;;;;;34.00;6.47;;;;;;;8.48;75.89;101467.03;5071055;28;20059;-53
2022/10/19 05:34:56;;;;;;;33.60;7.45;;;;;;;8.52;75.20;101465.38;5037634;28;20152;-51
2022/10/19 05:37:24;;;;;;;23.58;6.45;;;;;;;8.45;73.91;101462.00;5054947;28;20057;-52
2022/10/19 05:39:51;;;;;;;25.77;7.97;;;;;;;8.48;74.69;101464.25;5051427;28;20164;-50
2022/10/19 05:42:19;;;;;;;20.92;7.22;;;;;;;8.48;74.13;101458.69;5053840;28;20060;-52
2022/10/19 05:44:46;;;;;;;41.03;8.15;;;;;;;8.49;74.81;101451.19;5054878;28;20060;-54
2022/10/19 05:47:13;;;;;;;21.20;6.47;;;;;;;8.51;73.27;101458.13;5054099;28;20494;-53
2022/10/19 05:49:40;;;;;;;11.32;6.00;;;;;;;8.45;74.21;101456.47;5052667;28;20053;-53
2022/10/19 05:52:09;;;;;;;11.10;5.97;;;;;;;8.46;73.16;101455.38;5052750;28;20486;-53
2022/10/19 05:54:37;;;;;;;13.05;4.97;;;;;;;8.43;73.49;101457.84;5054955;28;20055;-49
2022/10/19 05:57:04;;;;;;;13.23;5.15;;;;;;;8.44;73.53;101453.94;5069810;28;20052;-52
2022/10/19 05:59:31;;;;;;;12.68;5.07;;;;;;;8.38;73.46;101455.03;5072157;28;20406;-50
2022/10/19 06:01:58;;;;;;;13.27;4.82;;;;;;;8.33;72.10;101453.06;5060206;28;20506;-51
2022/10/19 06:04:26;;;;;;;52.95;6.78;;;;;;;8.28;73.47;101466.97;5064397;28;20049;-53
2022/10/19 06:06:53;;;;;;;10.68;5.55;;;;;;;8.26;74.16;101463.63;5068157;28;20061;-51
2022/10/19 06:09:22;;;;;;;24.90;5.60;;;;;;;8.21;73.29;101472.78;5059844;28;20528;-56
2022/10/19 06:11:49;;;;;;;38.28;6.88;;;;;;;8.14;75.20;101480.50;5059854;28;20437;-55
2022/10/19 06:14:16;;;;;;;41.88;6.28;;;;;;;8.29;74.38;101486.13;5044437;28;20064;-57
2022/10/19 06:16:44;;;;;;;10.85;4.32;;;;;;;8.30;74.84;101485.00;5050459;28;20513;-57
2022/10/19 06:19:12;;;;;;;16.95;5.40;;;;;;;8.38;74.20;101483.63;5044160;28;20072;-55
2022/10/19 06:21:39;;;;;;;20.67;6.10;;;;;;;8.40;74.08;101488.88;5051471;28;20049;-56
2022/10/19 06:24:06;;;;;;;34.90;7.10;;;;;;;8.45;73.69;101480.63;5047846;28;20534;-53
2022/10/19 06:26:35;;;;;;;20.95;6.40;;;;;;;8.45;74.54;101495.31;5046617;28;20053;-55
2022/10/19 06:29:04;;;;;;;24.60;6.85;;;;;;;8.42;74.48;101495.91;5049124;28;20351;-54
2022/10/19 06:31:35;;;;;;;12.25;5.38;;;;;;;8.44;73.38;101496.44;5044633;28;20064;-56
2022/10/19 06:34:02;;;;;;;19.90;6.45;;;;;;;8.47;74.51;101487.56;5046818;28;20061;-55
2022/10/19 06:36:31;;;;;;;113.25;11.95;;;;;;;8.29;73.91;101490.81;5048436;28;20072;-56
2022/10/19 06:39:00;;;;;;;14.25;6.60;;;;;;;8.43;73.61;101497.53;5048134;28;20069;-55
2022/10/19 06:41:28;;;;;;;35.00;6.97;;;;;;;8.45;72.51;101495.31;5049265;28;20690;-55
2022/10/19 06:43:57;;;;;;;14.50;6.47;;;;;;;8.59;72.62;101494.78;5043696;28;20060;-55
2022/10/19 06:46:25;;;;;;;13.00;7.03;;;;;;;8.61;72.90;101495.34;5044446;28;20075;-56
2022/10/19 06:48:55;;;;;;;7.93;5.80;;;;;;;8.72;71.08;101483.16;5043587;28;20834;-55
2022/10/19 06:51:24;;;;;;;10.95;6.07;;;;;;;8.79;70.44;101485.66;5047543;28;20056;-54
2022/10/19 06:53:52;;;;;;;9.85;4.57;;;;;;;8.89;70.42;101494.81;5046979;28;20060;-55
2022/10/19 06:56:19;;;;;;;14.80;5.80;;;;;;;8.93;69.91;101486.75;5046651;28;20060;-55
2022/10/19 06:58:48;;;;;;;21.80;5.80;;;;;;;8.99;69.47;101487.56;5043473;28;20049;-59
2022/10/19 07:01:17;;;;;;;86.13;15.25;;;;;;;9.10;68.56;101484.50;5040751;28;20054;-57
2022/10/19 07:03:44;;;;;;;40.10;10.47;;;;;;;9.28;68.31;101488.69;5048372;28;20060;-55
2022/10/19 07:06:13;;;;;;;11.90;5.72;;;;;;;9.44;67.48;101492.25;5044907;28;20067;-56
2022/10/19 07:08:42;;;;;;;5.90;4.40;;;;;;;9.69;66.36;101490.50;5047610;28;20052;-58
2022/10/19 07:11:12;;;;;;;6.88;3.80;;;;;;;10.08;66.08;101492.56;5046281;28;20049;-58
2022/10/19 07:13:39;;;;;;;;;;;;;;;10.37;64.60;101498.28;5050154;28;20067;-56
2022/10/19 07:16:10;;;;;;;4.32;3.35;;;;;;;10.68;63.79;101495.28;5048886;28;20327;-56
2022/10/19 07:18:40;;;;;;;4.95;3.00;;;;;;;10.89;62.93;101482.84;5048030;28;20053;-57
2022/10/19 07:21:09;;;;;;;2.90;2.63;;;;;;;11.07;62.11;101486.06;5047989;28;20059;-58
2022/10/19 07:23:38;;;;;;;4.07;3.17;;;;;;;11.27;61.50;101485.03;5040464;28;20049;-58
2022/10/19 07:26:08;;;;;;;4.20;3.00;;;;;;;11.36;61.61;101483.28;5041357;28;20053;-57
2022/10/19 07:28:35;;;;;;;6.88;3.72;;;;;;;11.68;60.21;101479.84;5049183;28;21076;-54
2022/10/19 07:31:07;;;;;;;6.57;3.60;;;;;;;11.88;59.59;101489.06;5056898;28;20080;-55
2022/10/19 07:33:35;;;;;;;27.20;7.03;;;;;;;11.71;58.80;101482.00;5049596;28;20052;-56
2022/10/19 07:36:06;;;;;;;4.70;3.85;;;;;;;12.28;59.06;101484.09;5076448;28;20067;-55
2022/10/19 07:38:34;;;;;;;6.15;3.10;;;;;;;12.82;57.69;101468.75;5069020;28;20063;-56
2022/10/19 07:41:06;;;;;;;6.38;3.35;;;;;;;12.86;56.41;101472.59;5072494;28;20060;-56
2022/10/19 07:43:34;;;;;;;4.03;3.08;;;;;;;13.43;55.14;101474.41;5074560;28;20056;-55
2022/10/19 07:46:03;;;;;;;4.65;3.05;;;;;;;14.33;54.65;101467.19;5066934;28;20056;-56
2022/10/19 07:48:30;;;;;;;4.78;3.50;;;;;;;15.68;50.96;101471.06;5075655;28;20063;-55
2022/10/19 07:50:58;;;;;;;5.45;3.58;;;;;;;16.76;47.87;101457.38;5076356;28;20063;-56
2022/10/19 07:53:27;;;;;;;4.22;3.80;;;;;;;18.48;44.61;101453.34;5080527;28;20047;-56
2022/10/19 07:55:54;;;;;;;6.32;3.28;;;;;;;20.12;41.38;101454.66;5087576;28;20059;-56
2022/10/19 07:58:21;;;;;;;4.43;2.97;;;;;;;21.32;38.75;101443.59;5069562;28;20481;-56
2022/10/19 08:00:48;;;;;;;8.48;4.70;;;;;;;22.45;35.86;101451.63;5085276;28;20055;-57
2022/10/19 08:03:15;;;;;;;6.10;4.30;;;;;;;23.66;34.46;101450.31;5080424;28;20057;-57
2022/10/19 08:05:43;;;;;;;4.97;3.33;;;;;;;24.64;33.04;101459.16;5079267;28;20496;-57
2022/10/19 08:08:10;;;;;;;3.80;2.85;;;;;;;25.49;30.89;101455.66;5074412;28;20063;-57
2022/10/19 08:10:38;;;;;;;5.82;3.75;;;;;;;26.20;30.22;101468.88;5080765;28;20390;-57
2022/10/19 08:13:06;;;;;;;4.40;3.38;;;;;;;26.28;29.92;101461.97;5076871;28;20492;-57
2022/10/19 08:15:33;;;;;;;6.15;3.85;;;;;;;26.83;29.03;101457.38;5079912;28;20053;-57
2022/10/19 08:18:00;;;;;;;6.00;4.13;;;;;;;27.59;28.11;101464.09;5063346;28;20060;-57
2022/10/19 08:20:28;;;;;;;6.50;4.10;;;;;;;27.75;27.80;101458.81;5071002;28;20052;-57
2022/10/19 08:22:55;;;;;;;5.57;3.63;;;;;;;27.04;29.00;101460.31;5080923;28;20055;-57
2022/10/19 08:25:22;;;;;;;4.43;3.85;;;;;;;26.70;29.35;101456.94;5084634;28;20515;-57
2022/10/19 08:27:51;;;;;;;10.73;4.80;;;;;;;26.50;29.23;101465.78;5074394;28;20052;-55
2022/10/19 08:30:18;;;;;;;10.77;5.05;;;;;;;25.71;30.23;101473.78;5075260;28;20072;-57
2022/10/19 08:32:46;;;;;;;8.75;5.80;;;;;;;24.97;31.59;101462.41;5076658;28;20423;-58
2022/10/19 08:35:13;;;;;;;7.47;4.68;;;;;;;24.19;31.91;101468.66;5082448;28;20071;-58
2022/10/19 08:37:40;;;;;;;6.20;4.53;;;;;;;24.09;32.90;101462.44;5075504;28;20055;-57
2022/10/19 08:40:18;;;;;;;5.38;4.88;;;;;;;24.74;32.05;101463.38;5068521;28;20087;-57
2022/10/19 08:42:56;;;;;;;9.10;4.80;;;;;;;26.60;29.65;101452.78;5068485;28;20059;-57
2022/10/19 08:45:37;;;;;;;5.93;4.40;;;;;;;26.67;29.77;101460.59;5056244;28;20063;-55
2022/10/19 08:48:22;;;;;;;6.05;4.88;;;;;;;27.49;28.97;101457.16;5051576;28;20101;-57
2022/10/19 08:50:49;;;;;;;7.28;5.20;;;;;;;27.62;28.49;101454.72;5059836;28;20065;-58
2022/10/19 08:53:22;;;;;;;6.85;5.13;;;;;;;28.08;28.06;101453.91;5086427;28;20064;-58
2022/10/19 08:56:02;;;;;;;5.55;4.93;;;;;;;28.45;27.41;101461.16;5052545;28;20065;-56
2022/10/19 08:58:47;;;;;;;6.15;4.57;;;;;;;28.56;27.00;101459.13;5067274;28;20059;-57
2022/10/19 09:01:19;;;;;;;9.95;4.68;;;;;;;29.45;26.89;101463.56;5081692;28;20420;-61
2022/10/19 09:03:50;;;;;;;5.30;4.80;;;;;;;30.63;25.25;101453.03;5074882;28;20376;-58
2022/10/19 09:06:23;;;;;;;5.88;4.60;;;;;;;31.25;24.64;101435.78;5086720;28;20374;-58
2022/10/19 09:08:53;;;;;;;7.80;3.83;;;;;;;30.31;25.70;101442.72;5069655;28;20052;-58
2022/10/19 09:11:25;;;;;;;4.43;4.00;;;;;;;29.60;26.90;101438.44;5071213;28;20417;-58
2022/10/19 09:14:04;;;;;;;5.15;3.90;;;;;;;28.94;27.64;101442.16;5083968;28;20052;-58
2022/10/19 09:16:33;;;;;;;7.43;4.50;;;;;;;28.86;27.71;101427.03;5079830;28;20063;-58
2022/10/19 09:19:00;;;;;;;4.93;3.92;;;;;;;29.14;27.24;101431.00;5062705;28;20060;-57
2022/10/19 09:21:37;;;;;;;4.43;3.75;;;;;;;30.18;26.54;101427.25;5073833;28;20056;-57
2022/10/19 09:24:07;;;;;;;6.53;4.05;;;;;;;30.87;26.17;101410.00;5092119;28;20056;-57
2022/10/19 09:26:39;;;;;;;6.68;4.25;;;;;;;31.46;25.43;101400.91;5072588;28;20060;-58
2022/10/19 09:29:24;;;;;;;4.65;3.88;;;;;;;31.43;25.77;101401.75;5075436;28;20501;-58
2022/10/19 09:31:55;;;;;;;4.03;3.63;;;;;;;32.36;24.57;101400.06;5088616;28;20068;-57
2022/10/19 09:34:25;;;;;;;8.93;4.10;;;;;;;33.13;24.25;101400.84;5071990;28;20049;-57
2022/10/19 09:36:56;;;;;;;5.97;2.08;;;;;;;33.39;23.05;101395.31;5079689;28;20504;-57
2022/10/19 09:39:24;;;;;;;23.45;4.60;;;;;;;34.18;22.83;101396.13;5077771;28;20496;-57
2022/10/19 09:41:53;;;;;;;;;;;;;;;34.43;21.89;101394.56;5095878;28;20056;-57
2022/10/19 09:44:23;;;;;;;4.03;1.70;;;;;;;35.47;21.76;101376.81;5075554;28;19920;-57
2022/10/19 09:46:57;;;;;;;5.65;1.80;;;;;;;35.58;20.05;101377.28;5082166;28;20048;-57
2022/10/19 09:49:40;;;;;;;4.78;1.90;;;;;;;34.59;20.98;101380.03;5071948;28;20060;-58
2022/10/19 09:52:25;;;;;;;6.70;1.98;;;;;;;34.64;20.27;101372.91;5054553;28;20052;-58
2022/10/19 09:55:01;;;;;;;3.38;1.77;;;;;;;34.56;20.91;101378.84;5083981;28;20056;-57
2022/10/19 09:57:29;;;;;;;5.10;1.77;;;;;;;33.40;21.65;101378.78;5074425;28;20064;-57
2022/10/19 10:00:00;;;;;;;4.13;1.80;;;;;;;34.04;21.68;101371.28;5071635;28;20511;-58
2022/10/19 10:02:32;;;;;;;5.35;2.03;;;;;;;33.75;21.85;101365.50;5089034;28;20060;-58
2022/10/19 10:05:06;;;;;;;4.88;1.92;;;;;;;34.11;21.07;101364.50;5076467;28;20060;-58
2022/10/19 10:07:36;;;;;;;5.25;1.77;;;;;;;34.26;20.50;101357.03;5071358;28;20049;-58
2022/10/19 10:10:19;;;;;;;4.32;1.92;;;;;;;34.83;20.93;101356.59;5083069;28;20056;-58
2022/10/19 10:12:48;;;;;;;5.00;1.77;;;;;;;34.91;20.75;101357.97;5066623;28;20056;-58
2022/10/19 10:15:21;;;;;;;4.38;1.95;;;;;;;35.50;20.17;101355.63;5073129;28;20079;-58
2022/10/19 10:17:50;;;;;;;6.35;1.95;;;;;;;35.27;19.90;101353.94;5073789;28;20064;-57
2022/10/19 10:20:23;;;;;;;3.55;1.70;;;;;;;35.82;19.55;101351.59;5065541;28;20060;-59
2022/10/19 10:22:58;;;;;;;4.05;1.70;;;;;;;35.83;19.17;101347.44;5067146;28;20056;-58
2022/10/19 10:25:29;;;;;;;4.13;1.55;;;;;;;35.92;19.66;101343.78;5073301;28;20060;-58
2022/10/19 10:27:59;;;;;;;3.92;1.63;;;;;;;35.88;19.54;101349.72;5074015;28;20052;-58
2022/10/19 10:30:33;;;;;;;4.80;1.70;;;;;;;34.93;19.64;101353.34;5084039;28;20052;-59
2022/10/19 10:33:01;;;;;;;3.72;1.88;;;;;;;34.01;20.29;101356.94;5076887;28;20058;-58
2022/10/19 10:35:34;;;;;;;6.23;2.00;;;;;;;33.57;21.23;101355.19;5051005;28;20076;-58
2022/10/19 10:38:07;;;;;;;6.63;1.75;;;;;;;33.63;21.08;101346.00;5053282;28;20063;-58
2022/10/19 10:40:35;;;;;;;6.50;1.77;;;;;;;34.31;20.81;101344.09;5053291;28;20057;-58
2022/10/19 10:43:06;;;;;;;4.35;1.88;;;;;;;34.78;20.29;101336.91;5052285;28;20060;-58
2022/10/19 10:45:41;;;;;;;4.15;1.98;;;;;;;35.44;19.28;101338.00;5053612;28;20060;-58
2022/10/19 10:48:27;;;;;;;3.17;1.50;;;;;;;36.10;19.25;101334.41;5053440;28;20397;-58
2022/10/19 10:50:55;;;;;;;4.82;1.90;;;;;;;36.35;18.52;101337.22;5053003;28;20399;-58
2022/10/19 10:53:33;;;;;;;5.45;1.92;;;;;;;36.09;18.95;101324.91;5050745;28;20057;-58
2022/10/19 10:56:01;;;;;;;4.70;1.60;;;;;;;35.69;18.47;101328.44;5052809;28;20064;-58
2022/10/19 10:58:37;;;;;;;5.33;2.00;;;;;;;35.93;18.76;101322.19;5053386;28;20049;-59
2022/10/19 11:01:13;;;;;;;4.80;1.85;;;;;;;35.49;19.81;101317.16;5052713;28;20487;-57
2022/10/19 11:03:49;;;;;;;3.90;1.75;;;;;;;34.94;19.96;101310.72;5051535;28;20072;-58
2022/10/19 11:06:21;;;;;;;4.38;1.55;;;;;;;33.65;21.11;101318.28;5052342;28;20071;-58
2022/10/19 11:08:55;;;;;;;3.75;1.63;;;;;;;33.86;20.71;101302.41;5053172;28;20144;-58
2022/10/19 11:11:27;;;;;;;4.45;2.00;;;;;;;33.71;21.40;101286.75;5052406;28;20072;-57
2022/10/19 11:14:00;;;;;;;6.75;1.80;;;;;;;34.50;21.02;101287.31;5048176;28;20061;-57
2022/10/19 11:16:33;;;;;;;2.90;1.90;;;;;;;35.17;20.11;101283.50;5052216;28;20061;-58
2022/10/19 11:19:07;;;;;;;4.30;1.80;;;;;;;35.17;19.84;101284.31;5053074;28;20067;-58
2022/10/19 11:21:42;;;;;;;4.97;1.80;;;;;;;33.34;20.68;101280.31;5052445;28;20060;-58
2022/10/19 11:24:18;;;;;;;6.03;1.80;;;;;;;32.78;21.50;101280.47;5053044;28;20256;-58
2022/10/19 11:27:01;;;;;;;3.30;1.70;;;;;;;32.86;22.07;101276.16;5052843;28;20049;-57
2022/10/19 11:29:44;;;;;;;4.05;2.08;;;;;;;33.24;21.72;101272.72;5052385;28;20072;-57
2022/10/19 11:32:25;;;;;;;4.25;1.80;;;;;;;33.26;22.51;101270.22;5050433;28;20532;-57
2022/10/19 11:35:04;;;;;;;3.67;1.83;;;;;;;33.24;21.78;101273.56;5068127;28;20496;-57
2022/10/19 11:37:40;;;;;;;4.82;2.28;;;;;;;32.92;21.68;101263.59;5068656;28;20053;-54
2022/10/19 11:40:16;;;;;;;3.60;1.52;;;;;;;32.12;22.58;101251.47;5065390;28;20080;-57